CheckWX is a tool to help pilots better visualize weather data.  It is not intended as a substitute for an official pre-flight weather briefing.

15:12:05 UTC

LGIR METAR
Heraklion International Nikos Kazantzakis Airport
Heraklion, Greece
Current

22 mins ago

LGIR 131450Z 00000KT 9999 FEW020 SCT080 16/12 Q1005 NOSIG
Observed
Dec-13 @ 14:50 UTC
Visibility
10,000+ meters
Flight Rules
VFR
Cloud Levels
  • Few at 2,000' AGL
  • Scattered at 8,000' AGL
Temperature
16°C / 61°F
Dewpoint
12°C / 54°F
Humidity
77%
Altimeter
29.68" Hg
Pressure
1004.92 hPa
Previous

52 mins ago

LGIR 131420Z 00000KT 9999 FEW020 SCT080 17/12 Q1005 NOSIG
Observed
Dec-13 @ 14:20 UTC
Visibility
10,000+ meters
Flight Rules
VFR
Cloud Levels
  • Few at 2,000' AGL
  • Scattered at 8,000' AGL
Temperature
17°C / 63°F
Dewpoint
12°C / 54°F
Humidity
73%
Altimeter
29.68" Hg
Pressure
1004.92 hPa
Previous

1 hour ago

LGIR 131350Z 33004KT 9999 FEW020 SCT080 17/12 Q1005 NOSIG
Observed
Dec-13 @ 13:50 UTC
Wind
  • 330° at 4 KTS
Visibility
10,000+ meters
Flight Rules
VFR
Cloud Levels
  • Few at 2,000' AGL
  • Scattered at 8,000' AGL
Temperature
17°C / 63°F
Dewpoint
12°C / 54°F
Humidity
73%
Altimeter
29.68" Hg
Pressure
1004.92 hPa